sensor_id;sensor_type;location;lat;lon;timestamp;P1;durP1;ratioP1;P2;durP2;ratioP2
30020;SDS011;16861;52.294;7.760;2023-12-20T00:01:43;5.72;;;2.85;;
30020;SDS011;16861;52.294;7.760;2023-12-20T00:04:10;9.05;;;3.50;;
30020;SDS011;16861;52.294;7.760;2023-12-20T00:06:36;7.85;;;2.88;;
30020;SDS011;16861;52.294;7.760;2023-12-20T00:09:03;8.95;;;3.10;;
30020;SDS011;16861;52.294;7.760;2023-12-20T00:11:30;11.82;;;3.67;;
30020;SDS011;16861;52.294;7.760;2023-12-20T00:13:56;9.35;;;3.70;;
30020;SDS011;16861;52.294;7.760;2023-12-20T00:16:23;10.77;;;3.00;;
30020;SDS011;16861;52.294;7.760;2023-12-20T00:18:49;11.95;;;3.35;;
30020;SDS011;16861;52.294;7.760;2023-12-20T00:21:16;9.75;;;3.28;;
30020;SDS011;16861;52.294;7.760;2023-12-20T00:23:42;6.40;;;3.40;;
30020;SDS011;16861;52.294;7.760;2023-12-20T00:26:09;10.25;;;3.38;;
30020;SDS011;16861;52.294;7.760;2023-12-20T00:28:35;9.57;;;3.88;;
30020;SDS011;16861;52.294;7.760;2023-12-20T00:31:02;9.55;;;3.85;;
30020;SDS011;16861;52.294;7.760;2023-12-20T00:33:29;10.07;;;3.30;;
30020;SDS011;16861;52.294;7.760;2023-12-20T00:35:56;9.07;;;4.20;;
30020;SDS011;16861;52.294;7.760;2023-12-20T00:38:22;10.27;;;4.00;;
30020;SDS011;16861;52.294;7.760;2023-12-20T00:40:49;9.85;;;4.00;;
30020;SDS011;16861;52.294;7.760;2023-12-20T00:43:16;7.28;;;3.67;;
30020;SDS011;16861;52.294;7.760;2023-12-20T00:45:43;11.63;;;3.70;;
30020;SDS011;16861;52.294;7.760;2023-12-20T00:48:09;5.63;;;3.22;;
30020;SDS011;16861;52.294;7.760;2023-12-20T00:50:36;8.20;;;3.63;;
30020;SDS011;16861;52.294;7.760;2023-12-20T00:53:02;5.90;;;3.20;;
30020;SDS011;16861;52.294;7.760;2023-12-20T00:55:29;8.27;;;3.47;;
30020;SDS011;16861;52.294;7.760;2023-12-20T00:57:55;9.63;;;3.90;;
30020;SDS011;16861;52.294;7.760;2023-12-20T01:00:22;11.27;;;3.85;;
30020;SDS011;16861;52.294;7.760;2023-12-20T01:02:49;17.85;;;4.15;;
30020;SDS011;16861;52.294;7.760;2023-12-20T01:05:18;11.60;;;4.30;;
30020;SDS011;16861;52.294;7.760;2023-12-20T01:07:46;8.18;;;3.60;;
30020;SDS011;16861;52.294;7.760;2023-12-20T01:10:13;9.63;;;3.38;;
30020;SDS011;16861;52.294;7.760;2023-12-20T01:12:39;11.15;;;3.80;;
30020;SDS011;16861;52.294;7.760;2023-12-20T01:15:06;7.45;;;3.40;;
30020;SDS011;16861;52.294;7.760;2023-12-20T01:17:33;9.20;;;3.25;;
30020;SDS011;16861;52.294;7.760;2023-12-20T01:20:00;8.52;;;3.28;;
30020;SDS011;16861;52.294;7.760;2023-12-20T01:22:26;10.43;;;3.90;;
30020;SDS011;16861;52.294;7.760;2023-12-20T01:24:53;10.38;;;3.40;;
30020;SDS011;16861;52.294;7.760;2023-12-20T01:27:20;10.68;;;3.22;;
30020;SDS011;16861;52.294;7.760;2023-12-20T01:29:46;8.82;;;3.28;;
30020;SDS011;16861;52.294;7.760;2023-12-20T01:32:13;8.43;;;3.60;;
30020;SDS011;16861;52.294;7.760;2023-12-20T01:34:39;11.82;;;3.28;;
30020;SDS011;16861;52.294;7.760;2023-12-20T01:37:07;16.40;;;3.33;;
30020;SDS011;16861;52.294;7.760;2023-12-20T01:39:34;9.70;;;3.20;;
30020;SDS011;16861;52.294;7.760;2023-12-20T01:42:00;7.85;;;2.80;;
30020;SDS011;16861;52.294;7.760;2023-12-20T01:44:27;10.50;;;3.25;;
30020;SDS011;16861;52.294;7.760;2023-12-20T01:46:53;11.32;;;3.25;;
30020;SDS011;16861;52.294;7.760;2023-12-20T01:49:21;8.80;;;3.30;;
30020;SDS011;16861;52.294;7.760;2023-12-20T01:51:48;13.75;;;3.70;;
30020;SDS011;16861;52.294;7.760;2023-12-20T01:54:16;8.77;;;2.95;;
30020;SDS011;16861;52.294;7.760;2023-12-20T01:56:43;11.90;;;3.38;;
30020;SDS011;16861;52.294;7.760;2023-12-20T01:59:10;10.85;;;3.25;;
30020;SDS011;16861;52.294;7.760;2023-12-20T02:01:36;10.10;;;3.35;;
30020;SDS011;16861;52.294;7.760;2023-12-20T02:04:03;10.50;;;3.63;;
30020;SDS011;16861;52.294;7.760;2023-12-20T02:06:30;12.10;;;3.88;;
30020;SDS011;16861;52.294;7.760;2023-12-20T02:09:00;10.60;;;3.20;;
30020;SDS011;16861;52.294;7.760;2023-12-20T02:11:27;12.23;;;3.22;;
30020;SDS011;16861;52.294;7.760;2023-12-20T02:13:53;13.63;;;4.88;;
30020;SDS011;16861;52.294;7.760;2023-12-20T02:16:21;13.68;;;3.53;;
30020;SDS011;16861;52.294;7.760;2023-12-20T02:18:48;8.65;;;3.60;;
30020;SDS011;16861;52.294;7.760;2023-12-20T02:21:15;10.63;;;4.05;;
30020;SDS011;16861;52.294;7.760;2023-12-20T02:23:42;11.85;;;3.50;;
30020;SDS011;16861;52.294;7.760;2023-12-20T02:26:08;11.50;;;3.63;;
30020;SDS011;16861;52.294;7.760;2023-12-20T02:28:35;16.05;;;4.60;;
30020;SDS011;16861;52.294;7.760;2023-12-20T02:31:02;16.02;;;4.82;;
30020;SDS011;16861;52.294;7.760;2023-12-20T02:33:29;15.02;;;4.03;;
30020;SDS011;16861;52.294;7.760;2023-12-20T02:35:56;9.40;;;4.28;;
30020;SDS011;16861;52.294;7.760;2023-12-20T02:38:22;15.10;;;4.47;;
30020;SDS011;16861;52.294;7.760;2023-12-20T02:40:49;13.80;;;4.80;;
30020;SDS011;16861;52.294;7.760;2023-12-20T02:43:15;16.98;;;5.30;;
30020;SDS011;16861;52.294;7.760;2023-12-20T02:45:42;14.23;;;5.05;;
30020;SDS011;16861;52.294;7.760;2023-12-20T02:48:09;12.93;;;5.25;;
30020;SDS011;16861;52.294;7.760;2023-12-20T02:50:36;17.48;;;5.10;;
30020;SDS011;16861;52.294;7.760;2023-12-20T02:53:02;14.10;;;4.90;;
30020;SDS011;16861;52.294;7.760;2023-12-20T02:55:29;21.20;;;5.90;;
30020;SDS011;16861;52.294;7.760;2023-12-20T02:57:56;11.82;;;5.75;;
30020;SDS011;16861;52.294;7.760;2023-12-20T03:00:22;16.55;;;5.95;;
30020;SDS011;16861;52.294;7.760;2023-12-20T03:02:49;27.58;;;6.50;;
30020;SDS011;16861;52.294;7.760;2023-12-20T03:05:16;14.90;;;4.53;;
30020;SDS011;16861;52.294;7.760;2023-12-20T03:07:42;14.45;;;5.43;;
30020;SDS011;16861;52.294;7.760;2023-12-20T03:10:10;15.82;;;5.65;;
30020;SDS011;16861;52.294;7.760;2023-12-20T03:12:48;19.58;;;4.93;;
30020;SDS011;16861;52.294;7.760;2023-12-20T03:15:15;12.60;;;5.20;;
30020;SDS011;16861;52.294;7.760;2023-12-20T03:17:41;18.73;;;4.97;;
30020;SDS011;16861;52.294;7.760;2023-12-20T03:20:09;15.57;;;4.60;;
30020;SDS011;16861;52.294;7.760;2023-12-20T03:22:35;14.80;;;4.43;;
30020;SDS011;16861;52.294;7.760;2023-12-20T03:25:02;16.88;;;4.13;;
30020;SDS011;16861;52.294;7.760;2023-12-20T03:27:29;15.60;;;4.18;;
30020;SDS011;16861;52.294;7.760;2023-12-20T03:29:55;17.50;;;4.15;;
30020;SDS011;16861;52.294;7.760;2023-12-20T03:32:22;15.88;;;4.22;;
30020;SDS011;16861;52.294;7.760;2023-12-20T03:34:49;17.20;;;4.07;;
30020;SDS011;16861;52.294;7.760;2023-12-20T03:37:16;15.65;;;3.70;;
30020;SDS011;16861;52.294;7.760;2023-12-20T03:39:42;16.88;;;4.13;;
30020;SDS011;16861;52.294;7.760;2023-12-20T03:42:09;15.52;;;3.92;;
30020;SDS011;16861;52.294;7.760;2023-12-20T03:44:38;23.45;;;4.32;;
30020;SDS011;16861;52.294;7.760;2023-12-20T03:47:05;19.95;;;4.65;;
30020;SDS011;16861;52.294;7.760;2023-12-20T03:49:32;13.82;;;4.45;;
30020;SDS011;16861;52.294;7.760;2023-12-20T03:51:59;17.17;;;3.55;;
30020;SDS011;16861;52.294;7.760;2023-12-20T03:54:25;14.75;;;4.00;;
30020;SDS011;16861;52.294;7.760;2023-12-20T03:56:52;9.98;;;3.35;;
30020;SDS011;16861;52.294;7.760;2023-12-20T03:59:19;18.85;;;3.78;;
30020;SDS011;16861;52.294;7.760;2023-12-20T04:01:45;12.90;;;3.45;;
30020;SDS011;16861;52.294;7.760;2023-12-20T04:04:12;15.30;;;3.30;;
30020;SDS011;16861;52.294;7.760;2023-12-20T04:06:40;16.13;;;4.28;;
30020;SDS011;16861;52.294;7.760;2023-12-20T04:09:06;13.23;;;3.70;;
30020;SDS011;16861;52.294;7.760;2023-12-20T04:11:36;17.27;;;3.72;;
30020;SDS011;16861;52.294;7.760;2023-12-20T04:14:03;13.45;;;3.67;;
30020;SDS011;16861;52.294;7.760;2023-12-20T04:16:31;13.48;;;3.70;;
30020;SDS011;16861;52.294;7.760;2023-12-20T04:18:57;10.57;;;3.22;;
30020;SDS011;16861;52.294;7.760;2023-12-20T04:21:24;12.88;;;3.10;;
30020;SDS011;16861;52.294;7.760;2023-12-20T04:23:51;20.88;;;3.80;;
30020;SDS011;16861;52.294;7.760;2023-12-20T04:26:17;14.43;;;2.75;;
30020;SDS011;16861;52.294;7.760;2023-12-20T04:28:44;15.98;;;3.40;;
30020;SDS011;16861;52.294;7.760;2023-12-20T04:31:10;16.67;;;4.15;;
30020;SDS011;16861;52.294;7.760;2023-12-20T04:33:37;19.92;;;3.67;;
30020;SDS011;16861;52.294;7.760;2023-12-20T04:36:03;18.55;;;3.25;;
30020;SDS011;16861;52.294;7.760;2023-12-20T04:38:30;15.48;;;3.50;;
30020;SDS011;16861;52.294;7.760;2023-12-20T04:40:57;26.17;;;3.72;;
30020;SDS011;16861;52.294;7.760;2023-12-20T04:43:23;10.38;;;2.47;;
30020;SDS011;16861;52.294;7.760;2023-12-20T04:45:51;19.63;;;3.50;;
30020;SDS011;16861;52.294;7.760;2023-12-20T04:48:18;18.77;;;3.50;;
30020;SDS011;16861;52.294;7.760;2023-12-20T04:50:44;22.05;;;4.20;;
30020;SDS011;16861;52.294;7.760;2023-12-20T04:53:11;19.20;;;3.45;;
30020;SDS011;16861;52.294;7.760;2023-12-20T04:55:37;16.45;;;2.92;;
30020;SDS011;16861;52.294;7.760;2023-12-20T04:58:05;22.92;;;4.05;;
30020;SDS011;16861;52.294;7.760;2023-12-20T05:00:32;13.15;;;3.30;;
30020;SDS011;16861;52.294;7.760;2023-12-20T05:02:58;16.95;;;3.67;;
30020;SDS011;16861;52.294;7.760;2023-12-20T05:05:25;19.08;;;3.75;;
30020;SDS011;16861;52.294;7.760;2023-12-20T05:07:52;25.02;;;4.95;;
30020;SDS011;16861;52.294;7.760;2023-12-20T05:10:19;18.67;;;3.80;;
30020;SDS011;16861;52.294;7.760;2023-12-20T05:12:45;20.35;;;4.60;;
30020;SDS011;16861;52.294;7.760;2023-12-20T05:15:12;15.15;;;4.47;;
30020;SDS011;16861;52.294;7.760;2023-12-20T05:17:38;14.75;;;3.78;;
30020;SDS011;16861;52.294;7.760;2023-12-20T05:20:05;18.38;;;4.93;;
30020;SDS011;16861;52.294;7.760;2023-12-20T05:22:33;17.05;;;4.18;;
30020;SDS011;16861;52.294;7.760;2023-12-20T05:24:59;15.15;;;3.92;;
30020;SDS011;16861;52.294;7.760;2023-12-20T05:27:26;15.50;;;4.07;;
30020;SDS011;16861;52.294;7.760;2023-12-20T05:29:52;12.90;;;3.53;;
30020;SDS011;16861;52.294;7.760;2023-12-20T05:32:19;23.33;;;4.38;;
30020;SDS011;16861;52.294;7.760;2023-12-20T05:34:45;28.02;;;4.72;;
30020;SDS011;16861;52.294;7.760;2023-12-20T05:37:12;17.52;;;4.10;;
30020;SDS011;16861;52.294;7.760;2023-12-20T05:39:39;19.27;;;4.85;;
30020;SDS011;16861;52.294;7.760;2023-12-20T05:42:05;15.45;;;4.10;;
30020;SDS011;16861;52.294;7.760;2023-12-20T05:44:32;16.63;;;4.43;;
30020;SDS011;16861;52.294;7.760;2023-12-20T05:46:58;21.73;;;4.15;;
30020;SDS011;16861;52.294;7.760;2023-12-20T05:49:25;21.83;;;3.83;;
30020;SDS011;16861;52.294;7.760;2023-12-20T05:51:51;15.40;;;3.90;;
30020;SDS011;16861;52.294;7.760;2023-12-20T05:54:18;12.55;;;3.88;;
30020;SDS011;16861;52.294;7.760;2023-12-20T05:56:45;16.75;;;5.28;;
30020;SDS011;16861;52.294;7.760;2023-12-20T05:59:11;19.70;;;4.07;;
30020;SDS011;16861;52.294;7.760;2023-12-20T06:01:38;23.77;;;4.95;;
30020;SDS011;16861;52.294;7.760;2023-12-20T06:04:04;18.48;;;5.32;;
30020;SDS011;16861;52.294;7.760;2023-12-20T06:06:31;14.25;;;4.28;;
30020;SDS011;16861;52.294;7.760;2023-12-20T06:08:57;20.73;;;5.18;;
30020;SDS011;16861;52.294;7.760;2023-12-20T06:11:24;19.85;;;5.55;;
30020;SDS011;16861;52.294;7.760;2023-12-20T06:13:51;17.02;;;5.07;;
30020;SDS011;16861;52.294;7.760;2023-12-20T06:16:19;21.17;;;5.10;;
30020;SDS011;16861;52.294;7.760;2023-12-20T06:18:46;20.60;;;4.72;;
30020;SDS011;16861;52.294;7.760;2023-12-20T06:21:13;22.38;;;5.43;;
30020;SDS011;16861;52.294;7.760;2023-12-20T06:23:40;17.88;;;5.05;;
30020;SDS011;16861;52.294;7.760;2023-12-20T06:26:07;25.73;;;5.55;;
30020;SDS011;16861;52.294;7.760;2023-12-20T06:28:33;24.60;;;5.53;;
30020;SDS011;16861;52.294;7.760;2023-12-20T06:31:00;25.45;;;5.53;;
30020;SDS011;16861;52.294;7.760;2023-12-20T06:33:27;19.60;;;5.07;;
30020;SDS011;16861;52.294;7.760;2023-12-20T06:35:54;21.35;;;5.15;;
30020;SDS011;16861;52.294;7.760;2023-12-20T06:38:20;20.42;;;5.00;;
30020;SDS011;16861;52.294;7.760;2023-12-20T06:40:47;15.75;;;4.60;;
30020;SDS011;16861;52.294;7.760;2023-12-20T06:43:14;15.23;;;4.40;;
30020;SDS011;16861;52.294;7.760;2023-12-20T06:46:00;19.67;;;5.20;;
30020;SDS011;16861;52.294;7.760;2023-12-20T06:48:27;24.58;;;5.13;;
30020;SDS011;16861;52.294;7.760;2023-12-20T06:50:54;26.92;;;5.45;;
30020;SDS011;16861;52.294;7.760;2023-12-20T06:53:20;15.55;;;4.45;;
30020;SDS011;16861;52.294;7.760;2023-12-20T06:55:47;19.27;;;5.20;;
30020;SDS011;16861;52.294;7.760;2023-12-20T06:58:13;22.15;;;4.72;;
30020;SDS011;16861;52.294;7.760;2023-12-20T07:00:40;23.55;;;4.65;;
30020;SDS011;16861;52.294;7.760;2023-12-20T07:03:07;24.85;;;4.60;;
30020;SDS011;16861;52.294;7.760;2023-12-20T07:05:33;19.13;;;4.43;;
30020;SDS011;16861;52.294;7.760;2023-12-20T07:08:00;19.55;;;4.50;;
30020;SDS011;16861;52.294;7.760;2023-12-20T07:10:26;18.45;;;4.45;;
30020;SDS011;16861;52.294;7.760;2023-12-20T07:12:53;22.83;;;4.25;;
30020;SDS011;16861;52.294;7.760;2023-12-20T07:15:21;18.65;;;3.90;;
30020;SDS011;16861;52.294;7.760;2023-12-20T07:17:48;21.33;;;4.35;;
30020;SDS011;16861;52.294;7.760;2023-12-20T07:20:15;19.98;;;4.43;;
30020;SDS011;16861;52.294;7.760;2023-12-20T07:22:42;29.52;;;5.05;;
30020;SDS011;16861;52.294;7.760;2023-12-20T07:25:09;21.15;;;3.83;;
30020;SDS011;16861;52.294;7.760;2023-12-20T07:27:36;15.65;;;3.63;;
30020;SDS011;16861;52.294;7.760;2023-12-20T07:30:03;30.88;;;4.95;;
30020;SDS011;16861;52.294;7.760;2023-12-20T07:32:30;13.77;;;3.55;;
30020;SDS011;16861;52.294;7.760;2023-12-20T07:34:58;16.38;;;4.13;;
30020;SDS011;16861;52.294;7.760;2023-12-20T07:37:26;31.27;;;4.00;;
30020;SDS011;16861;52.294;7.760;2023-12-20T07:39:52;18.05;;;3.88;;
30020;SDS011;16861;52.294;7.760;2023-12-20T07:42:19;16.88;;;3.47;;
30020;SDS011;16861;52.294;7.760;2023-12-20T07:44:46;16.98;;;3.42;;
30020;SDS011;16861;52.294;7.760;2023-12-20T07:47:13;23.17;;;4.03;;
30020;SDS011;16861;52.294;7.760;2023-12-20T07:49:44;24.55;;;3.55;;
30020;SDS011;16861;52.294;7.760;2023-12-20T07:52:10;29.42;;;5.07;;
30020;SDS011;16861;52.294;7.760;2023-12-20T07:54:37;19.08;;;3.67;;
30020;SDS011;16861;52.294;7.760;2023-12-20T07:57:04;17.65;;;4.35;;
30020;SDS011;16861;52.294;7.760;2023-12-20T07:59:30;14.82;;;3.85;;
30020;SDS011;16861;52.294;7.760;2023-12-20T08:01:58;21.20;;;4.97;;
30020;SDS011;16861;52.294;7.760;2023-12-20T08:04:26;19.83;;;3.47;;
30020;SDS011;16861;52.294;7.760;2023-12-20T08:06:52;18.30;;;3.85;;
30020;SDS011;16861;52.294;7.760;2023-12-20T08:09:19;21.38;;;3.83;;
30020;SDS011;16861;52.294;7.760;2023-12-20T08:11:46;20.08;;;4.78;;
30020;SDS011;16861;52.294;7.760;2023-12-20T08:14:13;23.83;;;4.05;;
30020;SDS011;16861;52.294;7.760;2023-12-20T08:16:41;15.02;;;4.20;;
30020;SDS011;16861;52.294;7.760;2023-12-20T08:19:07;14.50;;;3.28;;
30020;SDS011;16861;52.294;7.760;2023-12-20T08:21:34;25.13;;;4.45;;
30020;SDS011;16861;52.294;7.760;2023-12-20T08:24:04;20.30;;;4.45;;
30020;SDS011;16861;52.294;7.760;2023-12-20T08:26:32;23.15;;;4.85;;
30020;SDS011;16861;52.294;7.760;2023-12-20T08:28:59;19.77;;;4.45;;
30020;SDS011;16861;52.294;7.760;2023-12-20T08:31:27;18.35;;;3.67;;
30020;SDS011;16861;52.294;7.760;2023-12-20T08:33:54;22.77;;;5.13;;
30020;SDS011;16861;52.294;7.760;2023-12-20T08:36:21;21.15;;;4.25;;
30020;SDS011;16861;52.294;7.760;2023-12-20T08:38:49;20.23;;;4.00;;
30020;SDS011;16861;52.294;7.760;2023-12-20T08:41:16;18.38;;;3.72;;
30020;SDS011;16861;52.294;7.760;2023-12-20T08:43:44;17.70;;;3.67;;
30020;SDS011;16861;52.294;7.760;2023-12-20T08:46:10;15.65;;;3.60;;
30020;SDS011;16861;52.294;7.760;2023-12-20T08:48:38;17.65;;;4.95;;
30020;SDS011;16861;52.294;7.760;2023-12-20T08:51:05;21.42;;;3.92;;
30020;SDS011;16861;52.294;7.760;2023-12-20T08:53:34;14.43;;;3.28;;
30020;SDS011;16861;52.294;7.760;2023-12-20T08:56:01;22.88;;;4.75;;
30020;SDS011;16861;52.294;7.760;2023-12-20T08:58:28;22.10;;;4.63;;
30020;SDS011;16861;52.294;7.760;2023-12-20T09:00:55;21.63;;;4.70;;
30020;SDS011;16861;52.294;7.760;2023-12-20T09:03:22;19.05;;;4.32;;
30020;SDS011;16861;52.294;7.760;2023-12-20T09:05:48;20.70;;;4.00;;
30020;SDS011;16861;52.294;7.760;2023-12-20T09:08:15;25.52;;;5.30;;
30020;SDS011;16861;52.294;7.760;2023-12-20T09:10:42;18.55;;;4.43;;
30020;SDS011;16861;52.294;7.760;2023-12-20T09:13:09;18.10;;;3.88;;
30020;SDS011;16861;52.294;7.760;2023-12-20T09:15:35;17.98;;;4.30;;
30020;SDS011;16861;52.294;7.760;2023-12-20T09:18:02;25.23;;;4.55;;
30020;SDS011;16861;52.294;7.760;2023-12-20T09:20:30;25.13;;;4.60;;
30020;SDS011;16861;52.294;7.760;2023-12-20T09:22:57;20.95;;;4.28;;
30020;SDS011;16861;52.294;7.760;2023-12-20T09:25:24;18.42;;;4.22;;
30020;SDS011;16861;52.294;7.760;2023-12-20T09:27:52;19.73;;;4.05;;
30020;SDS011;16861;52.294;7.760;2023-12-20T09:30:19;17.33;;;4.18;;
30020;SDS011;16861;52.294;7.760;2023-12-20T09:32:53;27.88;;;4.20;;
30020;SDS011;16861;52.294;7.760;2023-12-20T09:35:20;23.27;;;3.78;;
30020;SDS011;16861;52.294;7.760;2023-12-20T09:37:47;15.02;;;3.58;;
30020;SDS011;16861;52.294;7.760;2023-12-20T09:40:14;25.25;;;5.47;;
30020;SDS011;16861;52.294;7.760;2023-12-20T09:45:24;21.90;;;4.55;;
30020;SDS011;16861;52.294;7.760;2023-12-20T09:47:52;21.70;;;4.70;;
30020;SDS011;16861;52.294;7.760;2023-12-20T09:50:19;21.05;;;4.47;;
30020;SDS011;16861;52.294;7.760;2023-12-20T09:52:51;19.50;;;4.82;;
30020;SDS011;16861;52.294;7.760;2023-12-20T09:55:19;17.15;;;4.10;;
30020;SDS011;16861;52.294;7.760;2023-12-20T09:57:49;24.27;;;5.47;;
30020;SDS011;16861;52.294;7.760;2023-12-20T10:00:17;23.45;;;5.10;;
30020;SDS011;16861;52.294;7.760;2023-12-20T10:02:50;21.42;;;5.03;;
30020;SDS011;16861;52.294;7.760;2023-12-20T10:05:27;17.10;;;4.05;;
30020;SDS011;16861;52.294;7.760;2023-12-20T10:07:56;24.00;;;4.88;;
30020;SDS011;16861;52.294;7.760;2023-12-20T10:10:23;18.35;;;4.47;;
30020;SDS011;16861;52.294;7.760;2023-12-20T10:13:07;20.83;;;4.78;;
30020;SDS011;16861;52.294;7.760;2023-12-20T10:15:35;17.63;;;3.97;;
30020;SDS011;16861;52.294;7.760;2023-12-20T10:18:03;13.35;;;3.70;;
30020;SDS011;16861;52.294;7.760;2023-12-20T10:20:30;15.98;;;3.80;;
30020;SDS011;16861;52.294;7.760;2023-12-20T10:22:58;14.25;;;3.38;;
30020;SDS011;16861;52.294;7.760;2023-12-20T10:25:25;14.98;;;3.60;;
30020;SDS011;16861;52.294;7.760;2023-12-20T10:30:40;10.60;;;3.10;;
30020;SDS011;16861;52.294;7.760;2023-12-20T10:33:08;16.75;;;3.50;;
30020;SDS011;16861;52.294;7.760;2023-12-20T10:35:37;16.88;;;3.58;;
30020;SDS011;16861;52.294;7.760;2023-12-20T10:38:09;20.27;;;4.30;;
30020;SDS011;16861;52.294;7.760;2023-12-20T10:40:37;14.65;;;3.65;;
30020;SDS011;16861;52.294;7.760;2023-12-20T10:43:04;18.15;;;3.55;;
30020;SDS011;16861;52.294;7.760;2023-12-20T10:45:32;12.23;;;3.17;;
30020;SDS011;16861;52.294;7.760;2023-12-20T10:47:59;16.65;;;3.50;;
30020;SDS011;16861;52.294;7.760;2023-12-20T10:50:28;12.30;;;3.42;;
30020;SDS011;16861;52.294;7.760;2023-12-20T10:52:56;18.33;;;3.72;;
30020;SDS011;16861;52.294;7.760;2023-12-20T10:55:24;17.30;;;4.07;;
30020;SDS011;16861;52.294;7.760;2023-12-20T10:57:52;16.05;;;3.88;;
30020;SDS011;16861;52.294;7.760;2023-12-20T11:00:26;11.20;;;2.83;;
30020;SDS011;16861;52.294;7.760;2023-12-20T11:02:54;12.70;;;3.20;;
30020;SDS011;16861;52.294;7.760;2023-12-20T11:05:29;15.63;;;3.72;;
30020;SDS011;16861;52.294;7.760;2023-12-20T11:08:06;17.40;;;4.72;;
30020;SDS011;16861;52.294;7.760;2023-12-20T11:13:16;19.45;;;3.70;;
30020;SDS011;16861;52.294;7.760;2023-12-20T11:15:46;12.52;;;3.40;;
30020;SDS011;16861;52.294;7.760;2023-12-20T11:18:13;12.95;;;2.95;;
30020;SDS011;16861;52.294;7.760;2023-12-20T11:20:41;15.38;;;3.72;;
30020;SDS011;16861;52.294;7.760;2023-12-20T11:23:09;16.40;;;3.55;;
30020;SDS011;16861;52.294;7.760;2023-12-20T11:25:55;18.42;;;4.10;;
30020;SDS011;16861;52.294;7.760;2023-12-20T11:28:25;14.07;;;3.53;;
30020;SDS011;16861;52.294;7.760;2023-12-20T11:30:59;14.00;;;3.58;;
30020;SDS011;16861;52.294;7.760;2023-12-20T11:33:32;15.52;;;4.13;;
30020;SDS011;16861;52.294;7.760;2023-12-20T11:36:02;16.15;;;3.47;;
30020;SDS011;16861;52.294;7.760;2023-12-20T11:38:39;20.02;;;3.53;;
30020;SDS011;16861;52.294;7.760;2023-12-20T11:41:21;13.75;;;3.90;;
30020;SDS011;16861;52.294;7.760;2023-12-20T11:43:51;10.70;;;3.33;;
30020;SDS011;16861;52.294;7.760;2023-12-20T11:46:19;10.70;;;4.10;;
30020;SDS011;16861;52.294;7.760;2023-12-20T11:48:47;16.92;;;3.92;;
30020;SDS011;16861;52.294;7.760;2023-12-20T11:51:15;17.10;;;3.88;;
30020;SDS011;16861;52.294;7.760;2023-12-20T11:53:41;12.77;;;3.13;;
30020;SDS011;16861;52.294;7.760;2023-12-20T11:56:11;14.73;;;3.13;;
30020;SDS011;16861;52.294;7.760;2023-12-20T11:58:38;14.57;;;2.90;;
30020;SDS011;16861;52.294;7.760;2023-12-20T12:01:05;8.98;;;2.38;;
30020;SDS011;16861;52.294;7.760;2023-12-20T12:03:35;8.32;;;1.92;;
30020;SDS011;16861;52.294;7.760;2023-12-20T12:06:02;7.35;;;1.75;;
30020;SDS011;16861;52.294;7.760;2023-12-20T12:08:31;11.57;;;2.17;;
30020;SDS011;16861;52.294;7.760;2023-12-20T12:10:58;5.22;;;1.63;;
30020;SDS011;16861;52.294;7.760;2023-12-20T12:13:25;7.13;;;1.33;;
30020;SDS011;16861;52.294;7.760;2023-12-20T12:15:54;6.70;;;1.23;;
30020;SDS011;16861;52.294;7.760;2023-12-20T12:18:20;6.90;;;1.60;;
30020;SDS011;16861;52.294;7.760;2023-12-20T12:20:48;7.18;;;1.40;;
30020;SDS011;16861;52.294;7.760;2023-12-20T12:23:14;3.85;;;1.20;;
30020;SDS011;16861;52.294;7.760;2023-12-20T12:25:49;9.68;;;1.50;;
30020;SDS011;16861;52.294;7.760;2023-12-20T12:28:16;9.13;;;2.00;;
30020;SDS011;16861;52.294;7.760;2023-12-20T12:30:43;8.23;;;1.90;;
30020;SDS011;16861;52.294;7.760;2023-12-20T12:33:19;8.85;;;1.92;;
30020;SDS011;16861;52.294;7.760;2023-12-20T12:35:46;8.80;;;1.92;;
30020;SDS011;16861;52.294;7.760;2023-12-20T12:38:14;6.00;;;1.70;;
30020;SDS011;16861;52.294;7.760;2023-12-20T12:40:43;6.05;;;1.52;;
30020;SDS011;16861;52.294;7.760;2023-12-20T12:43:10;7.03;;;2.08;;
30020;SDS011;16861;52.294;7.760;2023-12-20T12:45:36;6.80;;;1.50;;
30020;SDS011;16861;52.294;7.760;2023-12-20T12:48:03;6.88;;;1.50;;
30020;SDS011;16861;52.294;7.760;2023-12-20T12:50:40;8.57;;;1.58;;
30020;SDS011;16861;52.294;7.760;2023-12-20T12:53:07;8.25;;;2.05;;
30020;SDS011;16861;52.294;7.760;2023-12-20T12:55:34;6.22;;;1.40;;
30020;SDS011;16861;52.294;7.760;2023-12-20T12:58:01;9.45;;;1.40;;
30020;SDS011;16861;52.294;7.760;2023-12-20T13:00:28;5.85;;;1.42;;
30020;SDS011;16861;52.294;7.760;2023-12-20T13:02:55;6.88;;;2.22;;
30020;SDS011;16861;52.294;7.760;2023-12-20T13:05:21;11.45;;;1.80;;
30020;SDS011;16861;52.294;7.760;2023-12-20T13:07:48;8.38;;;1.90;;
30020;SDS011;16861;52.294;7.760;2023-12-20T13:10:15;8.68;;;1.92;;
30020;SDS011;16861;52.294;7.760;2023-12-20T13:12:43;7.95;;;1.58;;
30020;SDS011;16861;52.294;7.760;2023-12-20T13:15:10;9.60;;;1.48;;
30020;SDS011;16861;52.294;7.760;2023-12-20T13:17:36;7.50;;;1.70;;
30020;SDS011;16861;52.294;7.760;2023-12-20T13:20:04;9.57;;;1.83;;
30020;SDS011;16861;52.294;7.760;2023-12-20T13:22:31;12.40;;;2.30;;
30020;SDS011;16861;52.294;7.760;2023-12-20T13:24:58;7.82;;;1.88;;
30020;SDS011;16861;52.294;7.760;2023-12-20T13:27:25;8.73;;;2.17;;
30020;SDS011;16861;52.294;7.760;2023-12-20T13:29:51;6.35;;;1.70;;
30020;SDS011;16861;52.294;7.760;2023-12-20T13:32:18;5.68;;;2.10;;
30020;SDS011;16861;52.294;7.760;2023-12-20T13:34:46;9.65;;;1.92;;
30020;SDS011;16861;52.294;7.760;2023-12-20T13:37:13;6.85;;;1.63;;
30020;SDS011;16861;52.294;7.760;2023-12-20T13:39:40;9.20;;;2.08;;
30020;SDS011;16861;52.294;7.760;2023-12-20T13:42:07;5.88;;;1.52;;
30020;SDS011;16861;52.294;7.760;2023-12-20T13:44:33;9.75;;;1.70;;
30020;SDS011;16861;52.294;7.760;2023-12-20T13:47:00;7.85;;;1.70;;
30020;SDS011;16861;52.294;7.760;2023-12-20T13:49:27;9.23;;;1.90;;
30020;SDS011;16861;52.294;7.760;2023-12-20T13:51:54;10.73;;;1.85;;
30020;SDS011;16861;52.294;7.760;2023-12-20T13:54:21;8.70;;;1.75;;
30020;SDS011;16861;52.294;7.760;2023-12-20T13:56:48;7.18;;;2.15;;
30020;SDS011;16861;52.294;7.760;2023-12-20T13:59:32;6.18;;;1.80;;
30020;SDS011;16861;52.294;7.760;2023-12-20T14:01:59;10.50;;;2.05;;
30020;SDS011;16861;52.294;7.760;2023-12-20T14:04:27;7.35;;;1.20;;
30020;SDS011;16861;52.294;7.760;2023-12-20T14:07:08;9.48;;;1.75;;
30020;SDS011;16861;52.294;7.760;2023-12-20T14:09:37;9.13;;;1.40;;
30020;SDS011;16861;52.294;7.760;2023-12-20T14:12:04;6.57;;;2.10;;
30020;SDS011;16861;52.294;7.760;2023-12-20T14:14:31;4.47;;;1.75;;
30020;SDS011;16861;52.294;7.760;2023-12-20T14:16:57;8.35;;;1.58;;
30020;SDS011;16861;52.294;7.760;2023-12-20T14:19:24;6.95;;;1.77;;
30020;SDS011;16861;52.294;7.760;2023-12-20T14:21:50;8.85;;;1.60;;
30020;SDS011;16861;52.294;7.760;2023-12-20T14:24:17;9.52;;;1.73;;
30020;SDS011;16861;52.294;7.760;2023-12-20T14:26:44;7.60;;;1.50;;
30020;SDS011;16861;52.294;7.760;2023-12-20T14:29:10;8.05;;;1.60;;
30020;SDS011;16861;52.294;7.760;2023-12-20T14:31:37;7.50;;;1.83;;
30020;SDS011;16861;52.294;7.760;2023-12-20T14:34:05;5.55;;;1.83;;
30020;SDS011;16861;52.294;7.760;2023-12-20T14:36:33;10.57;;;1.77;;
30020;SDS011;16861;52.294;7.760;2023-12-20T14:38:59;9.52;;;2.15;;
30020;SDS011;16861;52.294;7.760;2023-12-20T14:41:26;12.35;;;3.10;;
30020;SDS011;16861;52.294;7.760;2023-12-20T14:43:56;7.40;;;1.90;;
30020;SDS011;16861;52.294;7.760;2023-12-20T14:46:22;8.63;;;1.77;;
30020;SDS011;16861;52.294;7.760;2023-12-20T14:48:49;9.02;;;1.85;;